createdAt,value
2023-05-24T00:00:22.478Z,980.00
2023-05-24T00:01:22.318Z,979.99
2023-05-24T00:02:22.275Z,979.99
2023-05-24T00:03:22.252Z,980.00
2023-05-24T00:04:22.128Z,980.04
2023-05-24T00:05:21.988Z,980.05
2023-05-24T00:06:21.907Z,980.01
2023-05-24T00:07:21.832Z,980.00
2023-05-24T00:08:21.754Z,979.98
2023-05-24T00:09:21.719Z,980.00
2023-05-24T00:10:21.604Z,979.97
2023-05-24T00:11:21.544Z,980.01
2023-05-24T00:12:21.448Z,979.96
2023-05-24T00:13:21.353Z,979.95
2023-05-24T00:14:21.297Z,979.96
2023-05-24T00:15:21.216Z,979.92
2023-05-24T00:16:21.140Z,979.94
2023-05-24T00:17:21.066Z,979.96
2023-05-24T00:18:20.973Z,979.93
2023-05-24T00:19:21.147Z,979.93
2023-05-24T00:20:21.092Z,979.93
2023-05-24T00:21:20.729Z,979.94
2023-05-24T00:22:20.650Z,979.93
2023-05-24T00:23:20.613Z,979.97
2023-05-24T00:24:20.496Z,979.92
2023-05-24T00:25:20.413Z,979.95
2023-05-24T00:26:20.387Z,980.01
2023-05-24T00:27:20.261Z,979.96
2023-05-24T00:28:20.203Z,979.96
2023-05-24T00:29:20.104Z,980.00
2023-05-24T00:30:20.032Z,980.01
2023-05-24T00:31:19.961Z,979.97
2023-05-24T00:32:19.908Z,980.02
2023-05-24T00:33:19.791Z,980.04
2023-05-24T00:34:19.725Z,980.05
2023-05-24T00:35:19.636Z,980.03
2023-05-24T00:36:19.580Z,979.99
2023-05-24T00:37:19.474Z,980.02
2023-05-24T00:38:19.397Z,980.03
2023-05-24T00:39:19.319Z,980.06
2023-05-24T00:40:19.234Z,980.07
2023-05-24T00:41:19.160Z,980.09
2023-05-24T00:42:19.082Z,980.11
2023-05-24T00:43:19.001Z,980.08
2023-05-24T00:44:18.921Z,980.07
2023-05-24T00:45:18.848Z,980.09
2023-05-24T00:46:18.847Z,980.09
2023-05-24T00:47:18.692Z,980.15
2023-05-24T00:48:18.614Z,980.07
2023-05-24T00:49:18.532Z,980.09
2023-05-24T00:50:18.494Z,980.14
2023-05-24T00:51:18.374Z,980.10
2023-05-24T00:52:18.297Z,980.07
2023-05-24T00:53:18.215Z,980.07
2023-05-24T00:54:18.138Z,980.12
2023-05-24T00:55:18.060Z,980.08
2023-05-24T00:56:17.976Z,980.13
2023-05-24T00:57:17.912Z,980.13
2023-05-24T00:58:17.821Z,980.11
2023-05-24T00:59:17.746Z,980.17
2023-05-24T01:00:17.666Z,980.13
2023-05-24T01:01:17.587Z,980.14
2023-05-24T01:02:17.534Z,980.12
2023-05-24T01:03:17.491Z,980.14
2023-05-24T01:04:17.365Z,980.12
2023-05-24T01:05:17.299Z,980.14
2023-05-24T01:06:17.200Z,980.15
2023-05-24T01:07:17.114Z,980.11
2023-05-24T01:08:17.038Z,980.13
2023-05-24T01:09:16.957Z,980.13
2023-05-24T01:10:16.879Z,980.13
2023-05-24T01:11:16.806Z,980.11
2023-05-24T01:12:16.738Z,980.11
2023-05-24T01:13:16.642Z,980.08
2023-05-24T01:14:16.565Z,980.07
2023-05-24T01:15:16.495Z,980.07
2023-05-24T01:16:16.419Z,980.02
2023-05-24T01:17:16.330Z,980.06
2023-05-24T01:18:16.256Z,980.02
2023-05-24T01:19:16.182Z,980.05
2023-05-24T01:20:16.113Z,979.99
2023-05-24T01:21:16.014Z,979.95
2023-05-24T01:22:15.934Z,979.93
2023-05-24T01:23:15.858Z,979.90
2023-05-24T01:24:15.809Z,979.84
2023-05-24T01:25:15.696Z,979.87
2023-05-24T01:26:15.620Z,979.86
2023-05-24T01:27:15.550Z,979.89
2023-05-24T01:28:15.461Z,979.84
2023-05-24T01:29:15.386Z,979.85
2023-05-24T01:30:15.330Z,979.90
2023-05-24T01:31:15.239Z,979.93
2023-05-24T01:32:15.148Z,979.95
2023-05-24T01:33:15.075Z,979.98
2023-05-24T01:34:14.990Z,979.92
2023-05-24T01:35:14.917Z,979.95
2023-05-24T01:36:14.837Z,979.94
2023-05-24T01:37:14.767Z,979.99
2023-05-24T01:38:14.665Z,979.98
2023-05-24T01:39:14.589Z,979.98
2023-05-24T01:40:14.515Z,979.96
2023-05-24T01:41:14.427Z,979.95
2023-05-24T01:42:14.360Z,979.95
2023-05-24T01:43:14.275Z,980.01
2023-05-24T01:44:14.191Z,979.99
2023-05-24T01:45:14.112Z,979.96
2023-05-24T01:46:14.060Z,979.97
2023-05-24T01:47:13.954Z,979.96
2023-05-24T01:48:13.877Z,979.95
2023-05-24T01:49:13.799Z,979.96
2023-05-24T01:50:13.724Z,979.96
2023-05-24T01:51:13.646Z,979.98
2023-05-24T01:52:13.584Z,980.02
2023-05-24T01:53:13.491Z,980.00
2023-05-24T01:54:13.400Z,979.96
2023-05-24T01:55:13.317Z,980.00
2023-05-24T01:56:13.254Z,980.02
2023-05-24T01:57:13.161Z,979.99
2023-05-24T01:58:13.118Z,979.98
2023-05-24T01:59:13.022Z,979.97
2023-05-24T02:00:12.929Z,979.97
2023-05-24T02:01:12.892Z,980.01
2023-05-24T02:02:12.795Z,979.98
2023-05-24T02:03:12.738Z,979.99
2023-05-24T02:04:12.606Z,980.01
2023-05-24T02:05:12.527Z,979.99
2023-05-24T02:06:12.463Z,979.96
2023-05-24T02:07:12.372Z,979.99
2023-05-24T02:08:12.287Z,979.98
2023-05-24T02:09:12.208Z,980.05
2023-05-24T02:10:12.125Z,980.01
2023-05-24T02:11:12.053Z,980.02
2023-05-24T02:12:11.985Z,980.07
2023-05-24T02:13:11.892Z,980.06
2023-05-24T02:14:11.816Z,980.03
2023-05-24T02:15:11.745Z,980.03
2023-05-24T02:16:11.693Z,980.07
2023-05-24T02:17:11.579Z,980.06
2023-05-24T02:18:11.501Z,980.06
2023-05-24T02:19:11.424Z,980.09
2023-05-24T02:20:11.394Z,980.11
2023-05-24T02:21:11.260Z,980.12
2023-05-24T02:22:11.183Z,980.12
2023-05-24T02:23:11.106Z,980.14
2023-05-24T02:24:11.038Z,980.12
2023-05-24T02:25:10.952Z,980.14
2023-05-24T02:26:10.868Z,980.21
2023-05-24T02:27:10.803Z,980.24
2023-05-24T02:28:10.723Z,980.22
2023-05-24T02:29:10.650Z,980.20
2023-05-24T02:30:10.565Z,980.22
2023-05-24T02:31:10.502Z,980.24
2023-05-24T02:32:10.392Z,980.21
2023-05-24T02:33:10.343Z,980.20
2023-05-24T02:34:10.242Z,980.21
2023-05-24T02:35:10.171Z,980.24
2023-05-24T02:36:10.079Z,980.17
2023-05-24T02:37:10.000Z,980.20
2023-05-24T02:38:09.937Z,980.18
2023-05-24T02:39:09.834Z,980.18
2023-05-24T02:40:09.759Z,980.20
2023-05-24T02:41:09.676Z,980.15
2023-05-24T02:42:09.608Z,980.16
2023-05-24T02:43:09.519Z,980.14
2023-05-24T02:44:09.440Z,980.16
2023-05-24T02:45:09.358Z,980.17
2023-05-24T02:46:09.321Z,980.20
2023-05-24T02:47:09.203Z,980.19
2023-05-24T02:48:09.124Z,980.18
2023-05-24T02:49:09.049Z,980.15
2023-05-24T02:50:08.965Z,980.16
2023-05-24T02:51:08.886Z,980.16
2023-05-24T02:52:08.817Z,980.12
2023-05-24T02:53:08.731Z,980.18
2023-05-24T02:54:08.653Z,980.19
2023-05-24T02:55:08.583Z,980.15
2023-05-24T02:56:08.496Z,980.15
2023-05-24T02:57:08.426Z,980.15
2023-05-24T02:58:08.368Z,980.11
2023-05-24T02:59:08.248Z,980.17
2023-05-24T03:00:08.169Z,980.15
2023-05-24T03:01:08.088Z,980.15
2023-05-24T03:02:08.054Z,980.17
2023-05-24T03:03:07.990Z,980.15
2023-05-24T03:04:07.976Z,980.16
2023-05-24T03:05:07.768Z,980.23
2023-05-24T03:06:07.691Z,980.22
2023-05-24T03:07:07.613Z,980.25
2023-05-24T03:08:07.529Z,980.23
2023-05-24T03:09:07.458Z,980.25
2023-05-24T03:10:07.383Z,980.28
2023-05-24T03:11:07.291Z,980.30
2023-05-24T03:12:07.224Z,980.30
2023-05-24T03:13:07.147Z,980.29
2023-05-24T03:14:07.064Z,980.34
2023-05-24T03:15:06.975Z,980.34
2023-05-24T03:16:06.919Z,980.38
2023-05-24T03:17:06.818Z,980.35
2023-05-24T03:18:06.746Z,980.36
2023-05-24T03:19:09.773Z,980.41
2023-05-24T03:20:06.615Z,980.38
2023-05-24T03:21:06.539Z,980.42
2023-05-24T03:22:06.418Z,980.44
2023-05-24T03:23:06.370Z,980.44
2023-05-24T03:24:06.261Z,980.47
2023-05-24T03:25:06.207Z,980.47
2023-05-24T03:26:06.104Z,980.46
2023-05-24T03:27:06.035Z,980.45
2023-05-24T03:28:05.951Z,980.49
2023-05-24T03:29:05.889Z,980.51
2023-05-24T03:30:05.784Z,980.50
2023-05-24T03:31:05.710Z,980.48
2023-05-24T03:32:05.689Z,980.46
2023-05-24T03:33:05.584Z,980.45
2023-05-24T03:34:05.466Z,980.46
2023-05-24T03:35:05.392Z,980.45
2023-05-24T03:36:05.304Z,980.44
2023-05-24T03:37:05.230Z,980.43
2023-05-24T03:38:05.148Z,980.43
2023-05-24T03:39:05.089Z,980.42
2023-05-24T03:40:04.996Z,980.38
2023-05-24T03:41:04.911Z,980.40
2023-05-24T03:42:04.853Z,980.39
2023-05-24T03:43:04.823Z,980.40
2023-05-24T03:44:04.675Z,980.40
2023-05-24T03:45:04.604Z,980.41
2023-05-24T03:46:04.528Z,980.42
2023-05-24T03:47:04.435Z,980.40
2023-05-24T03:48:04.454Z,980.42
2023-05-24T03:49:04.277Z,980.42
2023-05-24T03:50:04.208Z,980.44
2023-05-24T03:51:04.144Z,980.42
2023-05-24T03:52:04.034Z,980.43
2023-05-24T03:53:03.963Z,980.44
2023-05-24T03:54:03.884Z,980.43
2023-05-24T03:55:03.794Z,980.40
2023-05-24T03:56:03.721Z,980.43
2023-05-24T03:57:03.633Z,980.38
2023-05-24T03:58:03.564Z,980.39
2023-05-24T03:59:03.492Z,980.38
2023-05-24T04:00:03.397Z,980.41
2023-05-24T04:01:03.324Z,980.43
2023-05-24T04:02:03.270Z,980.38
2023-05-24T04:03:03.239Z,980.42
2023-05-24T04:04:03.165Z,980.42
2023-05-24T04:05:02.995Z,980.43
2023-05-24T04:06:02.938Z,980.47
2023-05-24T04:07:02.840Z,980.45
2023-05-24T04:08:02.759Z,980.47
2023-05-24T04:09:02.690Z,980.45
2023-05-24T04:10:02.605Z,980.44
2023-05-24T04:11:02.530Z,980.50
2023-05-24T04:12:02.473Z,980.43
2023-05-24T04:13:02.384Z,980.46
2023-05-24T04:14:02.289Z,980.47
2023-05-24T04:15:02.225Z,980.45
2023-05-24T04:16:02.121Z,980.42
2023-05-24T04:17:02.154Z,980.41
2023-05-24T04:18:02.008Z,980.43
2023-05-24T04:19:01.914Z,980.38
2023-05-24T04:20:01.832Z,980.37
2023-05-24T04:21:01.753Z,980.40
2023-05-24T04:22:01.644Z,980.38
2023-05-24T04:23:01.568Z,980.36
2023-05-24T04:24:01.549Z,980.36
2023-05-24T04:25:01.501Z,980.36
2023-05-24T04:26:01.326Z,980.38
2023-05-24T04:27:01.251Z,980.38
2023-05-24T04:28:01.170Z,980.35
2023-05-24T04:29:01.090Z,980.38
2023-05-24T04:30:01.013Z,980.35
2023-05-24T04:31:00.970Z,980.37
2023-05-24T04:32:00.882Z,980.38
2023-05-24T04:33:00.859Z,980.40
2023-05-24T04:34:00.697Z,980.41
2023-05-24T04:35:00.619Z,980.42
2023-05-24T04:36:00.534Z,980.41
2023-05-24T04:37:00.460Z,980.39
2023-05-24T04:38:00.383Z,980.39
2023-05-24T04:39:00.295Z,980.41
2023-05-24T04:40:00.229Z,980.36
2023-05-24T04:41:00.169Z,980.37
2023-05-24T04:42:00.070Z,980.39
2023-05-24T04:42:59.976Z,980.36
2023-05-24T04:43:59.905Z,980.37
2023-05-24T04:44:59.816Z,980.34
2023-05-24T04:45:59.739Z,980.38
2023-05-24T04:46:59.747Z,980.40
2023-05-24T04:47:59.627Z,980.36
2023-05-24T04:48:59.502Z,980.36
2023-05-24T04:49:59.430Z,980.34
2023-05-24T04:50:59.339Z,980.37
2023-05-24T04:51:59.314Z,980.37
2023-05-24T04:52:59.190Z,980.35
2023-05-24T04:53:59.108Z,980.33
2023-05-24T04:54:59.027Z,980.28
2023-05-24T04:55:58.948Z,980.32
2023-05-24T04:56:58.868Z,980.29
2023-05-24T04:57:58.796Z,980.28
2023-05-24T04:58:58.724Z,980.30
2023-05-24T04:59:58.633Z,980.28
2023-05-24T05:00:58.554Z,980.33
2023-05-24T05:01:58.526Z,980.34
2023-05-24T05:02:58.457Z,980.35
2023-05-24T05:03:58.330Z,980.30
2023-05-24T05:04:58.233Z,980.33
2023-05-24T05:05:58.162Z,980.37
2023-05-24T05:06:58.085Z,980.38
2023-05-24T05:07:57.993Z,980.39
2023-05-24T05:08:57.916Z,980.40
2023-05-24T05:09:57.839Z,980.42
2023-05-24T05:10:57.760Z,980.43
2023-05-24T05:11:57.681Z,980.44
2023-05-24T05:12:57.602Z,980.44
2023-05-24T05:13:57.520Z,980.47
2023-05-24T05:14:57.453Z,980.45
2023-05-24T05:15:57.382Z,980.46
2023-05-24T05:16:57.338Z,980.49
2023-05-24T05:17:57.251Z,980.49
2023-05-24T05:18:57.121Z,980.49
2023-05-24T05:19:57.163Z,980.52
2023-05-24T05:20:56.965Z,980.55
2023-05-24T05:21:56.884Z,980.47
2023-05-24T05:22:56.820Z,980.43
2023-05-24T05:23:56.740Z,980.50
2023-05-24T05:24:56.648Z,980.45
2023-05-24T05:25:56.579Z,980.44
2023-05-24T05:26:56.502Z,980.48
2023-05-24T05:27:56.414Z,980.47
2023-05-24T05:28:56.335Z,980.49
2023-05-24T05:29:56.263Z,980.47
2023-05-24T05:30:56.169Z,980.47
2023-05-24T05:31:56.152Z,980.41
2023-05-24T05:32:56.056Z,980.47
2023-05-24T05:33:55.956Z,980.44
2023-05-24T05:34:55.864Z,980.41
2023-05-24T05:35:55.778Z,980.41
2023-05-24T05:36:55.700Z,980.43
2023-05-24T05:37:55.632Z,980.44
2023-05-24T05:38:55.565Z,980.41
2023-05-24T05:39:55.487Z,980.46
2023-05-24T05:40:55.386Z,980.45
2023-05-24T05:41:55.311Z,980.40
2023-05-24T05:42:55.234Z,980.40
2023-05-24T05:43:55.143Z,980.38
2023-05-24T05:44:55.074Z,980.35
2023-05-24T05:45:55.008Z,980.36
2023-05-24T05:46:54.912Z,980.37
2023-05-24T05:47:54.843Z,980.36
2023-05-24T05:48:54.753Z,980.39
2023-05-24T05:49:54.689Z,980.37
2023-05-24T05:50:54.599Z,980.41
2023-05-24T05:51:54.524Z,980.43
2023-05-24T05:52:54.433Z,980.46
2023-05-24T05:53:54.371Z,980.40
2023-05-24T05:54:54.288Z,980.41
2023-05-24T05:55:54.197Z,980.44
2023-05-24T05:56:54.115Z,980.41
2023-05-24T05:57:54.042Z,980.41
2023-05-24T05:58:53.969Z,980.40
2023-05-24T05:59:53.901Z,980.40
2023-05-24T06:00:53.807Z,980.43
2023-05-24T06:01:53.718Z,980.42
2023-05-24T06:02:53.707Z,980.40
2023-05-24T06:03:53.619Z,980.42
2023-05-24T06:04:53.583Z,980.39
2023-05-24T06:05:53.415Z,980.42
2023-05-24T06:06:53.340Z,980.43
2023-05-24T06:07:53.271Z,980.41
2023-05-24T06:08:53.167Z,980.43
2023-05-24T06:09:53.091Z,980.44
2023-05-24T06:10:53.233Z,980.48
2023-05-24T06:11:52.940Z,980.49
2023-05-24T06:12:52.848Z,980.45
2023-05-24T06:13:52.779Z,980.43
2023-05-24T06:14:52.712Z,980.45
2023-05-24T06:15:52.666Z,980.42
2023-05-24T06:16:52.539Z,980.48
2023-05-24T06:17:52.491Z,980.52
2023-05-24T06:19:04.680Z,980.51
2023-05-24T06:19:52.309Z,980.49
2023-05-24T06:20:52.221Z,980.51
2023-05-24T06:21:52.196Z,980.52
2023-05-24T06:22:52.060Z,980.51
2023-05-24T06:23:51.986Z,980.47
2023-05-24T06:24:51.909Z,980.48
2023-05-24T06:25:51.826Z,980.45
2023-05-24T06:26:51.755Z,980.47
2023-05-24T06:27:51.687Z,980.48
2023-05-24T06:28:51.595Z,980.52
2023-05-24T06:29:51.577Z,980.50
2023-05-24T06:30:51.482Z,980.46
2023-05-24T06:31:51.567Z,980.45
2023-05-24T06:32:51.361Z,980.48
2023-05-24T06:34:02.544Z,980.44
2023-05-24T06:34:51.119Z,980.43
2023-05-24T06:35:51.047Z,980.47
2023-05-24T06:36:50.986Z,980.46
2023-05-24T06:37:50.885Z,980.46
2023-05-24T06:38:50.803Z,980.46
2023-05-24T06:39:50.724Z,980.48
2023-05-24T06:40:50.647Z,980.49
2023-05-24T06:41:50.582Z,980.49
2023-05-24T06:42:50.490Z,980.50
2023-05-24T06:43:50.411Z,980.55
2023-05-24T06:44:50.338Z,980.56
2023-05-24T06:45:50.274Z,980.58
2023-05-24T06:46:50.191Z,980.56
2023-05-24T06:47:50.124Z,980.65
2023-05-24T06:48:50.071Z,980.59
2023-05-24T06:49:49.994Z,980.63
2023-05-24T06:50:49.867Z,980.59
2023-05-24T06:51:49.778Z,980.61
2023-05-24T06:52:49.783Z,980.67
2023-05-24T06:53:49.796Z,980.67
2023-05-24T06:54:49.546Z,980.67
2023-05-24T06:55:49.463Z,980.72
2023-05-24T06:56:49.385Z,980.66
2023-05-24T06:57:49.309Z,980.71
2023-05-24T06:58:49.224Z,980.69
2023-05-24T06:59:49.159Z,980.67
2023-05-24T07:00:49.101Z,980.70
2023-05-24T07:01:49.069Z,980.69
2023-05-24T07:02:49.034Z,980.69
2023-05-24T07:03:48.833Z,980.66
2023-05-24T07:04:48.808Z,980.75
2023-05-24T07:05:48.673Z,980.71
2023-05-24T07:06:48.603Z,980.71
2023-05-24T07:07:48.516Z,980.70
2023-05-24T07:08:48.438Z,980.73
2023-05-24T07:09:48.381Z,980.78
2023-05-24T07:10:48.293Z,980.72
2023-05-24T07:11:48.299Z,980.77
2023-05-24T07:12:48.117Z,980.76
2023-05-24T07:13:48.041Z,980.74
2023-05-24T07:14:47.979Z,980.80
2023-05-24T07:15:47.889Z,980.82
2023-05-24T07:16:47.842Z,980.83
2023-05-24T07:17:47.756Z,980.86
2023-05-24T07:18:47.668Z,980.87
2023-05-24T07:19:47.574Z,980.90
2023-05-24T07:20:48.040Z,980.89
2023-05-24T07:21:47.423Z,980.88
2023-05-24T07:22:47.346Z,980.89
2023-05-24T07:23:47.256Z,980.94
2023-05-24T07:24:47.177Z,980.93
2023-05-24T07:25:47.121Z,980.97
2023-05-24T07:26:47.021Z,980.94
2023-05-24T07:27:46.946Z,980.95
2023-05-24T07:28:46.896Z,980.97
2023-05-24T07:29:48.203Z,980.98
2023-05-24T07:30:46.814Z,980.98
2023-05-24T07:31:46.694Z,981.00
2023-05-24T07:32:46.623Z,980.99
2023-05-24T07:33:46.473Z,981.00
2023-05-24T07:34:46.387Z,980.97
2023-05-24T07:35:46.317Z,981.01
2023-05-24T07:36:46.233Z,981.00
2023-05-24T07:37:46.158Z,981.01
2023-05-24T07:38:46.102Z,981.03
2023-05-24T07:39:45.994Z,981.03
2023-05-24T07:40:45.955Z,981.04
2023-05-24T07:41:45.858Z,981.04
2023-05-24T07:42:45.765Z,981.08
2023-05-24T07:43:45.687Z,981.12
2023-05-24T07:44:45.610Z,981.12
2023-05-24T07:45:45.593Z,981.15
2023-05-24T07:46:45.463Z,981.19
2023-05-24T07:47:45.433Z,981.20
2023-05-24T07:48:45.297Z,981.20
2023-05-24T07:49:45.226Z,981.20
2023-05-24T07:50:45.139Z,981.20
2023-05-24T07:51:45.056Z,981.19
2023-05-24T07:52:44.980Z,981.16
2023-05-24T07:53:44.901Z,981.14
2023-05-24T07:54:44.823Z,981.10
2023-05-24T07:55:44.929Z,981.18
2023-05-24T07:56:44.662Z,981.13
2023-05-24T07:57:44.697Z,981.15
2023-05-24T07:58:44.517Z,981.18
2023-05-24T07:59:44.434Z,981.17
2023-05-24T08:00:44.350Z,981.18
2023-05-24T08:01:44.269Z,981.18
2023-05-24T08:02:44.358Z,981.20
2023-05-24T08:03:44.301Z,981.18
2023-05-24T08:04:44.050Z,981.25
2023-05-24T08:05:44.337Z,981.21
2023-05-24T08:06:43.922Z,981.21
2023-05-24T08:07:43.893Z,981.21
2023-05-24T08:08:43.782Z,981.22
2023-05-24T08:09:43.672Z,981.27
2023-05-24T08:10:43.573Z,981.21
2023-05-24T08:11:43.510Z,981.22
2023-05-24T08:12:43.431Z,981.23
2023-05-24T08:13:43.330Z,981.22
2023-05-24T08:14:43.257Z,981.21
2023-05-24T08:15:43.411Z,981.17
2023-05-24T08:16:43.159Z,981.15
2023-05-24T08:17:43.080Z,981.20
2023-05-24T08:18:42.946Z,981.11
2023-05-24T08:19:42.895Z,981.08
2023-05-24T08:20:42.889Z,981.11
2023-05-24T08:21:42.706Z,981.12
2023-05-24T08:22:42.660Z,981.14
2023-05-24T08:23:42.561Z,981.15
2023-05-24T08:24:42.467Z,981.17
2023-05-24T08:25:42.491Z,981.18
2023-05-24T08:26:42.310Z,981.21
2023-05-24T08:27:42.230Z,981.17
2023-05-24T08:28:42.157Z,981.17
2023-05-24T08:29:42.227Z,981.16
2023-05-24T08:30:42.030Z,981.19
2023-05-24T08:31:41.950Z,981.21
2023-05-24T08:32:41.928Z,981.25
2023-05-24T08:33:41.761Z,981.25
2023-05-24T08:34:41.694Z,981.29
2023-05-24T08:35:41.746Z,981.26
2023-05-24T08:36:41.533Z,981.32
2023-05-24T08:37:41.454Z,981.27
2023-05-24T08:38:41.371Z,981.31
2023-05-24T08:39:41.296Z,981.36
2023-05-24T08:40:41.221Z,981.40
2023-05-24T08:41:41.144Z,981.41
2023-05-24T08:42:41.099Z,981.39
2023-05-24T08:43:40.989Z,981.42
2023-05-24T08:44:40.901Z,981.41
2023-05-24T08:45:41.195Z,981.39
2023-05-24T08:46:40.856Z,981.44
2023-05-24T08:47:40.727Z,981.31
2023-05-24T08:48:40.595Z,981.46
2023-05-24T08:49:40.519Z,981.40
2023-05-24T08:50:40.454Z,981.46
2023-05-24T08:51:40.357Z,981.43
2023-05-24T08:52:40.279Z,981.46
2023-05-24T08:53:40.220Z,981.50
2023-05-24T08:54:40.137Z,981.49
2023-05-24T08:55:40.191Z,981.51
2023-05-24T08:56:39.969Z,981.46
2023-05-24T08:57:40.162Z,981.44
2023-05-24T08:58:39.812Z,981.43
2023-05-24T08:59:39.733Z,981.43
2023-05-24T09:00:39.668Z,981.44
2023-05-24T09:01:39.637Z,981.46
2023-05-24T09:02:39.546Z,981.45
2023-05-24T09:03:39.511Z,981.44
2023-05-24T09:04:39.338Z,981.44
2023-05-24T09:05:39.272Z,981.48
2023-05-24T09:06:39.199Z,981.43
2023-05-24T09:07:39.136Z,981.43
2023-05-24T09:08:40.150Z,981.42
2023-05-24T09:09:38.951Z,981.40
2023-05-24T09:10:53.152Z,981.47
2023-05-24T09:11:39.570Z,981.49
2023-05-24T09:12:39.468Z,981.46
2023-05-24T09:13:38.642Z,981.45
2023-05-24T09:14:38.568Z,981.50
2023-05-24T09:15:38.501Z,981.48
2023-05-24T09:16:38.529Z,981.50
2023-05-24T09:17:38.550Z,981.49
2023-05-24T09:18:38.258Z,981.52
2023-05-24T09:19:38.172Z,981.48
2023-05-24T09:20:38.149Z,981.46
2023-05-24T09:21:38.022Z,981.49
2023-05-24T09:22:40.366Z,981.50
2023-05-24T09:23:37.867Z,981.49
2023-05-24T09:24:37.784Z,981.55
2023-05-24T09:25:37.707Z,981.57
2023-05-24T09:26:37.645Z,981.61
2023-05-24T09:27:37.591Z,981.54
2023-05-24T09:28:37.481Z,981.60
2023-05-24T09:29:37.396Z,981.59
2023-05-24T09:30:37.314Z,981.61
2023-05-24T09:31:37.331Z,981.58
2023-05-24T09:32:37.302Z,981.59
2023-05-24T09:33:37.087Z,981.65
2023-05-24T09:34:37.006Z,981.62
2023-05-24T09:35:36.938Z,981.59
2023-05-24T09:36:36.899Z,981.53
2023-05-24T09:37:36.766Z,981.48
2023-05-24T09:38:37.065Z,981.49
2023-05-24T09:39:36.619Z,981.47
2023-05-24T09:40:36.542Z,981.43
2023-05-24T09:41:36.457Z,981.46
2023-05-24T09:42:36.385Z,981.48
2023-05-24T09:43:36.368Z,981.51
2023-05-24T09:44:36.226Z,981.50
2023-05-24T09:45:36.150Z,981.56
2023-05-24T09:46:36.111Z,981.52
2023-05-24T09:47:36.019Z,981.50
2023-05-24T09:48:35.927Z,981.50
2023-05-24T09:49:35.868Z,981.48
2023-05-24T09:50:35.786Z,981.45
2023-05-24T09:51:35.690Z,981.46
2023-05-24T09:52:36.106Z,981.46
2023-05-24T09:53:35.533Z,981.46
2023-05-24T09:54:35.452Z,981.41
2023-05-24T09:55:35.384Z,981.41
2023-05-24T09:56:35.307Z,981.40
2023-05-24T09:57:35.262Z,981.39
2023-05-24T09:58:35.155Z,981.38
2023-05-24T09:59:35.071Z,981.40
2023-05-24T10:00:34.995Z,981.41
2023-05-24T10:01:34.991Z,981.41
2023-05-24T10:02:41.594Z,981.41
2023-05-24T10:03:34.866Z,981.43
2023-05-24T10:04:34.711Z,981.41
2023-05-24T10:05:34.690Z,981.35
2023-05-24T10:06:34.525Z,981.31
2023-05-24T10:07:34.471Z,981.33
2023-05-24T10:08:34.364Z,981.30
2023-05-24T10:09:34.294Z,981.31
2023-05-24T10:10:34.236Z,981.35
2023-05-24T10:11:34.140Z,981.32
2023-05-24T10:12:34.063Z,981.31
2023-05-24T10:13:33.988Z,981.24
2023-05-24T10:14:33.906Z,981.28
2023-05-24T10:15:33.842Z,981.32
2023-05-24T10:16:33.783Z,981.39
2023-05-24T10:17:33.682Z,981.43
2023-05-24T10:18:33.602Z,981.40
2023-05-24T10:19:33.518Z,981.39
2023-05-24T10:20:33.450Z,981.43
2023-05-24T10:21:33.398Z,981.43
2023-05-24T10:22:33.304Z,981.41
2023-05-24T10:23:33.219Z,981.39
2023-05-24T10:24:33.158Z,981.41
2023-05-24T10:25:33.054Z,981.45
2023-05-24T10:26:32.977Z,981.44
2023-05-24T10:27:32.894Z,981.54
2023-05-24T10:28:32.818Z,981.42
2023-05-24T10:29:32.746Z,981.43
2023-05-24T10:30:32.705Z,981.41
2023-05-24T10:31:32.629Z,981.42
2023-05-24T10:32:32.590Z,981.43
2023-05-24T10:33:32.447Z,981.43
2023-05-24T10:34:32.348Z,981.42
2023-05-24T10:35:32.277Z,981.38
2023-05-24T10:36:32.194Z,981.43
2023-05-24T10:37:32.145Z,981.41
2023-05-24T10:38:32.042Z,981.43
2023-05-24T10:39:31.966Z,981.44
2023-05-24T10:40:31.902Z,981.42
2023-05-24T10:41:31.808Z,981.37
2023-05-24T10:42:31.740Z,981.38
2023-05-24T10:43:31.653Z,981.37
2023-05-24T10:44:31.582Z,981.41
2023-05-24T10:45:31.496Z,981.46
2023-05-24T10:46:31.451Z,981.46
2023-05-24T10:47:31.367Z,981.51
2023-05-24T10:48:31.272Z,981.44
2023-05-24T10:49:31.185Z,981.50
2023-05-24T10:50:31.107Z,981.43
2023-05-24T10:51:31.030Z,981.39
2023-05-24T10:52:30.955Z,981.39
2023-05-24T10:53:30.882Z,981.40
2023-05-24T10:54:30.807Z,981.37
2023-05-24T10:55:30.725Z,981.41
2023-05-24T10:56:30.654Z,981.42
2023-05-24T10:57:30.579Z,981.43
2023-05-24T10:58:30.588Z,981.42
2023-05-24T10:59:30.415Z,981.40
2023-05-24T11:01:30.305Z,981.38
2023-05-24T11:02:30.218Z,981.40
2023-05-24T11:03:30.108Z,981.40
2023-05-24T11:04:30.032Z,981.38
2023-05-24T11:05:29.969Z,981.38
2023-05-24T11:06:29.880Z,981.34
2023-05-24T11:07:29.793Z,981.34
2023-05-24T11:08:29.723Z,981.35
2023-05-24T11:09:29.654Z,981.34
2023-05-24T11:10:29.576Z,981.39
2023-05-24T11:11:32.091Z,981.39
2023-05-24T11:12:29.420Z,981.40
2023-05-24T11:13:29.340Z,981.38
2023-05-24T11:14:29.268Z,981.35
2023-05-24T11:15:29.188Z,981.36
2023-05-24T11:16:29.134Z,981.31
2023-05-24T11:17:29.092Z,981.29
2023-05-24T11:18:28.968Z,981.25
2023-05-24T11:19:28.885Z,981.28
2023-05-24T11:20:28.894Z,981.25
2023-05-24T11:21:28.753Z,981.30
2023-05-24T11:22:28.655Z,981.23
2023-05-24T11:23:28.568Z,981.25
2023-05-24T11:24:28.496Z,981.24
2023-05-24T11:25:28.435Z,981.30
2023-05-24T11:26:28.346Z,981.33
2023-05-24T11:27:28.268Z,981.34
2023-05-24T11:28:28.289Z,981.42
2023-05-24T11:29:28.117Z,981.34
2023-05-24T11:30:28.047Z,981.35
2023-05-24T11:31:28.011Z,981.43
2023-05-24T11:32:27.913Z,981.40
2023-05-24T11:33:27.827Z,981.38
2023-05-24T11:34:27.734Z,981.31
2023-05-24T11:35:27.656Z,981.33
2023-05-24T11:36:27.584Z,981.34
2023-05-24T11:37:38.452Z,981.34
2023-05-24T11:38:27.431Z,981.40
2023-05-24T11:39:27.354Z,981.39
2023-05-24T11:40:27.277Z,981.39
2023-05-24T11:41:27.208Z,981.40
2023-05-24T11:42:27.121Z,981.32
2023-05-24T11:43:27.042Z,981.33
2023-05-24T11:44:26.982Z,981.32
2023-05-24T11:45:26.916Z,981.32
2023-05-24T11:46:26.889Z,981.28
2023-05-24T11:47:26.773Z,981.39
2023-05-24T11:48:26.664Z,981.28
2023-05-24T11:49:26.585Z,981.34
2023-05-24T11:50:26.977Z,981.30
2023-05-24T11:51:26.434Z,981.32
2023-05-24T11:52:26.353Z,981.29
2023-05-24T11:53:26.277Z,981.29
2023-05-24T11:54:26.207Z,981.35
2023-05-24T11:55:26.121Z,981.32
2023-05-24T11:56:26.046Z,981.34
2023-05-24T11:57:25.977Z,981.41
2023-05-24T11:58:25.906Z,981.34
2023-05-24T11:59:25.842Z,981.30
2023-05-24T12:00:25.758Z,981.32
2023-05-24T12:01:25.680Z,981.29
2023-05-24T12:02:25.657Z,981.35
2023-05-24T12:03:25.642Z,981.32
2023-05-24T12:04:25.517Z,981.32
2023-05-24T12:05:25.361Z,981.34
2023-05-24T12:06:25.283Z,981.30
2023-05-24T12:07:25.196Z,981.33
2023-05-24T12:08:25.129Z,981.26
2023-05-24T12:09:25.074Z,981.24
2023-05-24T12:10:24.985Z,981.23
2023-05-24T12:11:24.911Z,981.20
2023-05-24T12:12:30.846Z,981.18
2023-05-24T12:13:24.753Z,981.16
2023-05-24T12:14:24.667Z,981.20
2023-05-24T12:15:24.603Z,981.22
2023-05-24T12:16:24.569Z,981.22
2023-05-24T12:17:24.458Z,981.20
2023-05-24T12:18:24.375Z,981.18
2023-05-24T12:19:33.044Z,981.25
2023-05-24T12:20:24.271Z,981.18
2023-05-24T12:21:24.139Z,981.12
2023-05-24T12:22:24.083Z,981.11
2023-05-24T12:23:23.987Z,981.12
2023-05-24T12:24:23.902Z,981.10
2023-05-24T12:25:23.838Z,981.12
2023-05-24T12:26:23.755Z,981.12
2023-05-24T12:27:23.690Z,981.11
2023-05-24T12:28:23.597Z,981.05